sensor_id;sensor_type;location;lat;lon;timestamp;P1;durP1;ratioP1;P2;durP2;ratioP2
25609;SDS011;13479;49.044;8.716;2023-11-21T05:02:13;5.80;;;0.90;;
25609;SDS011;13479;49.044;8.716;2023-11-21T05:04:39;2.78;;;0.63;;
25609;SDS011;13479;49.044;8.716;2023-11-21T05:07:04;3.45;;;0.75;;
25609;SDS011;13479;49.044;8.716;2023-11-21T05:09:29;2.25;;;0.63;;
25609;SDS011;13479;49.044;8.716;2023-11-21T05:11:57;2.75;;;0.77;;
25609;SDS011;13479;49.044;8.716;2023-11-21T05:14:22;3.97;;;0.88;;
25609;SDS011;13479;49.044;8.716;2023-11-21T05:16:47;5.43;;;0.90;;
25609;SDS011;13479;49.044;8.716;2023-11-21T05:19:13;5.28;;;1.10;;
25609;SDS011;13479;49.044;8.716;2023-11-21T05:21:38;4.55;;;1.27;;
25609;SDS011;13479;49.044;8.716;2023-11-21T05:24:03;2.78;;;1.23;;
25609;SDS011;13479;49.044;8.716;2023-11-21T05:26:30;3.33;;;1.33;;
25609;SDS011;13479;49.044;8.716;2023-11-21T05:28:55;3.60;;;1.23;;
25609;SDS011;13479;49.044;8.716;2023-11-21T05:31:20;6.80;;;1.60;;
25609;SDS011;13479;49.044;8.716;2023-11-21T05:33:46;5.03;;;1.63;;
25609;SDS011;13479;49.044;8.716;2023-11-21T05:36:12;6.35;;;1.50;;
25609;SDS011;13479;49.044;8.716;2023-11-21T05:38:37;1.58;;;1.02;;
25609;SDS011;13479;49.044;8.716;2023-11-21T05:41:02;2.80;;;1.13;;
25609;SDS011;13479;49.044;8.716;2023-11-21T05:43:28;5.70;;;1.63;;
25609;SDS011;13479;49.044;8.716;2023-11-21T05:45:55;5.90;;;1.75;;
25609;SDS011;13479;49.044;8.716;2023-11-21T05:48:21;5.53;;;1.40;;
25609;SDS011;13479;49.044;8.716;2023-11-21T05:50:47;2.60;;;1.33;;
25609;SDS011;13479;49.044;8.716;2023-11-21T05:53:14;3.10;;;1.40;;
25609;SDS011;13479;49.044;8.716;2023-11-21T05:55:40;6.03;;;1.75;;
25609;SDS011;13479;49.044;8.716;2023-11-21T05:58:07;5.18;;;1.75;;
25609;SDS011;13479;49.044;8.716;2023-11-21T06:00:32;7.47;;;1.60;;
25609;SDS011;13479;49.044;8.716;2023-11-21T06:02:58;5.30;;;2.13;;
25609;SDS011;13479;49.044;8.716;2023-11-21T06:05:23;3.75;;;1.75;;
25609;SDS011;13479;49.044;8.716;2023-11-21T06:07:50;4.78;;;1.70;;
25609;SDS011;13479;49.044;8.716;2023-11-21T06:10:21;3.58;;;1.40;;
25609;SDS011;13479;49.044;8.716;2023-11-21T06:12:48;3.80;;;1.67;;
25609;SDS011;13479;49.044;8.716;2023-11-21T06:15:13;4.55;;;1.77;;
25609;SDS011;13479;49.044;8.716;2023-11-21T06:17:39;5.70;;;1.50;;
25609;SDS011;13479;49.044;8.716;2023-11-21T06:20:05;5.32;;;1.98;;
25609;SDS011;13479;49.044;8.716;2023-11-21T06:22:39;5.95;;;2.20;;
25609;SDS011;13479;49.044;8.716;2023-11-21T06:25:05;8.73;;;2.40;;
25609;SDS011;13479;49.044;8.716;2023-11-21T06:27:32;7.70;;;2.75;;
25609;SDS011;13479;49.044;8.716;2023-11-21T06:29:59;4.70;;;2.20;;
25609;SDS011;13479;49.044;8.716;2023-11-21T06:32:24;5.82;;;1.85;;
25609;SDS011;13479;49.044;8.716;2023-11-21T06:34:50;3.85;;;2.20;;
25609;SDS011;13479;49.044;8.716;2023-11-21T06:37:15;9.45;;;3.03;;
25609;SDS011;13479;49.044;8.716;2023-11-21T06:39:41;6.07;;;2.10;;
25609;SDS011;13479;49.044;8.716;2023-11-21T06:42:07;4.40;;;1.92;;
25609;SDS011;13479;49.044;8.716;2023-11-21T06:44:32;3.03;;;1.60;;
25609;SDS011;13479;49.044;8.716;2023-11-21T06:46:58;3.22;;;1.52;;
25609;SDS011;13479;49.044;8.716;2023-11-21T06:49:24;3.92;;;1.38;;
25609;SDS011;13479;49.044;8.716;2023-11-21T06:51:49;4.25;;;1.90;;
25609;SDS011;13479;49.044;8.716;2023-11-21T06:54:14;4.18;;;1.90;;
25609;SDS011;13479;49.044;8.716;2023-11-21T06:56:39;4.28;;;1.45;;
25609;SDS011;13479;49.044;8.716;2023-11-21T06:59:06;5.55;;;1.75;;
25609;SDS011;13479;49.044;8.716;2023-11-21T07:01:31;3.35;;;1.60;;
25609;SDS011;13479;49.044;8.716;2023-11-21T07:04:03;3.35;;;1.70;;
25609;SDS011;13479;49.044;8.716;2023-11-21T07:06:29;7.00;;;2.20;;
25609;SDS011;13479;49.044;8.716;2023-11-21T07:08:54;5.82;;;2.35;;
25609;SDS011;13479;49.044;8.716;2023-11-21T07:11:19;4.32;;;2.50;;
25609;SDS011;13479;49.044;8.716;2023-11-21T07:13:46;4.10;;;2.40;;
25609;SDS011;13479;49.044;8.716;2023-11-21T07:16:11;4.85;;;2.05;;
25609;SDS011;13479;49.044;8.716;2023-11-21T07:18:36;3.47;;;1.58;;
25609;SDS011;13479;49.044;8.716;2023-11-21T07:21:02;5.68;;;1.90;;
25609;SDS011;13479;49.044;8.716;2023-11-21T07:23:28;3.03;;;1.70;;
25609;SDS011;13479;49.044;8.716;2023-11-21T07:25:53;5.32;;;1.52;;
25609;SDS011;13479;49.044;8.716;2023-11-21T07:28:19;2.88;;;1.38;;
25609;SDS011;13479;49.044;8.716;2023-11-21T07:30:44;3.72;;;1.20;;
25609;SDS011;13479;49.044;8.716;2023-11-21T07:33:10;3.25;;;1.38;;
25609;SDS011;13479;49.044;8.716;2023-11-21T07:35:35;3.55;;;1.58;;
25609;SDS011;13479;49.044;8.716;2023-11-21T07:38:00;6.13;;;1.10;;
25609;SDS011;13479;49.044;8.716;2023-11-21T07:40:26;3.60;;;2.15;;
25609;SDS011;13479;49.044;8.716;2023-11-21T07:42:52;2.45;;;1.65;;
25609;SDS011;13479;49.044;8.716;2023-11-21T07:45:17;5.32;;;1.98;;
25609;SDS011;13479;49.044;8.716;2023-11-21T07:47:43;4.60;;;1.63;;
25609;SDS011;13479;49.044;8.716;2023-11-21T07:50:08;2.05;;;1.30;;
25609;SDS011;13479;49.044;8.716;2023-11-21T07:52:34;2.50;;;1.25;;
25609;SDS011;13479;49.044;8.716;2023-11-21T07:54:59;3.83;;;2.13;;
25609;SDS011;13479;49.044;8.716;2023-11-21T07:57:24;2.33;;;1.42;;
25609;SDS011;13479;49.044;8.716;2023-11-21T07:59:49;4.30;;;2.17;;
25609;SDS011;13479;49.044;8.716;2023-11-21T08:02:15;3.17;;;1.75;;
25609;SDS011;13479;49.044;8.716;2023-11-21T08:04:42;2.28;;;1.60;;
25609;SDS011;13479;49.044;8.716;2023-11-21T08:07:07;1.90;;;1.20;;
25609;SDS011;13479;49.044;8.716;2023-11-21T08:09:34;2.58;;;1.63;;
25609;SDS011;13479;49.044;8.716;2023-11-21T08:11:59;2.25;;;1.42;;
25609;SDS011;13479;49.044;8.716;2023-11-21T08:14:27;5.43;;;2.10;;
25609;SDS011;13479;49.044;8.716;2023-11-21T08:16:52;3.92;;;2.60;;
25609;SDS011;13479;49.044;8.716;2023-11-21T08:19:22;5.75;;;2.30;;
25609;SDS011;13479;49.044;8.716;2023-11-21T08:21:49;4.63;;;2.30;;
25609;SDS011;13479;49.044;8.716;2023-11-21T08:24:15;4.32;;;1.95;;
25609;SDS011;13479;49.044;8.716;2023-11-21T08:26:41;2.88;;;1.60;;
25609;SDS011;13479;49.044;8.716;2023-11-21T08:32:15;3.00;;;1.58;;
25609;SDS011;13479;49.044;8.716;2023-11-21T08:34:41;2.60;;;2.00;;
25609;SDS011;13479;49.044;8.716;2023-11-21T08:37:08;2.53;;;1.98;;
25609;SDS011;13479;49.044;8.716;2023-11-21T08:39:33;3.20;;;2.10;;
25609;SDS011;13479;49.044;8.716;2023-11-21T08:41:58;3.67;;;2.55;;
25609;SDS011;13479;49.044;8.716;2023-11-21T08:44:24;7.75;;;3.10;;
25609;SDS011;13479;49.044;8.716;2023-11-21T08:46:49;2.10;;;1.90;;
25609;SDS011;13479;49.044;8.716;2023-11-21T08:49:15;3.47;;;2.50;;
25609;SDS011;13479;49.044;8.716;2023-11-21T08:51:40;2.72;;;1.98;;
25609;SDS011;13479;49.044;8.716;2023-11-21T08:54:06;4.20;;;2.05;;
25609;SDS011;13479;49.044;8.716;2023-11-21T08:56:33;6.13;;;3.10;;
25609;SDS011;13479;49.044;8.716;2023-11-21T08:58:59;5.45;;;2.70;;
25609;SDS011;13479;49.044;8.716;2023-11-21T09:01:27;3.72;;;2.63;;
25609;SDS011;13479;49.044;8.716;2023-11-21T09:03:53;4.05;;;2.63;;
25609;SDS011;13479;49.044;8.716;2023-11-21T09:06:18;4.20;;;2.90;;
25609;SDS011;13479;49.044;8.716;2023-11-21T09:08:44;9.50;;;5.10;;
25609;SDS011;13479;49.044;8.716;2023-11-21T09:11:09;6.72;;;4.10;;
25609;SDS011;13479;49.044;8.716;2023-11-21T09:13:35;8.13;;;5.00;;
25609;SDS011;13479;49.044;8.716;2023-11-21T09:16:01;7.13;;;4.63;;
25609;SDS011;13479;49.044;8.716;2023-11-21T09:18:26;5.97;;;4.28;;
25609;SDS011;13479;49.044;8.716;2023-11-21T09:20:51;9.95;;;5.43;;
25609;SDS011;13479;49.044;8.716;2023-11-21T09:23:17;8.02;;;4.97;;
25609;SDS011;13479;49.044;8.716;2023-11-21T09:25:43;7.20;;;4.70;;
25609;SDS011;13479;49.044;8.716;2023-11-21T09:28:11;8.95;;;5.90;;
25609;SDS011;13479;49.044;8.716;2023-11-21T09:30:36;8.75;;;5.38;;
25609;SDS011;13479;49.044;8.716;2023-11-21T09:33:02;6.63;;;4.95;;
25609;SDS011;13479;49.044;8.716;2023-11-21T09:35:30;10.55;;;5.95;;
25609;SDS011;13479;49.044;8.716;2023-11-21T09:37:55;7.32;;;4.80;;
25609;SDS011;13479;49.044;8.716;2023-11-21T09:40:21;7.40;;;4.47;;
25609;SDS011;13479;49.044;8.716;2023-11-21T09:42:56;8.18;;;4.78;;
25609;SDS011;13479;49.044;8.716;2023-11-21T09:47:56;8.95;;;5.53;;
25609;SDS011;13479;49.044;8.716;2023-11-21T09:50:22;10.30;;;7.00;;
25609;SDS011;13479;49.044;8.716;2023-11-21T09:52:55;14.48;;;8.52;;
25609;SDS011;13479;49.044;8.716;2023-11-21T09:55:22;13.10;;;7.82;;
25609;SDS011;13479;49.044;8.716;2023-11-21T09:57:51;13.80;;;8.15;;
25609;SDS011;13479;49.044;8.716;2023-11-21T10:00:18;15.80;;;8.05;;
25609;SDS011;13479;49.044;8.716;2023-11-21T10:02:48;13.38;;;8.55;;
25609;SDS011;13479;49.044;8.716;2023-11-21T10:05:14;16.42;;;9.80;;
25609;SDS011;13479;49.044;8.716;2023-11-21T10:07:42;18.55;;;10.20;;
25609;SDS011;13479;49.044;8.716;2023-11-21T10:10:09;15.10;;;9.73;;
25609;SDS011;13479;49.044;8.716;2023-11-21T10:12:35;16.60;;;9.55;;
25609;SDS011;13479;49.044;8.716;2023-11-21T10:15:01;17.15;;;10.48;;
25609;SDS011;13479;49.044;8.716;2023-11-21T10:17:31;13.55;;;8.77;;
25609;SDS011;13479;49.044;8.716;2023-11-21T10:20:04;15.95;;;10.57;;
25609;SDS011;13479;49.044;8.716;2023-11-21T10:22:36;11.60;;;8.23;;
25609;SDS011;13479;49.044;8.716;2023-11-21T10:25:03;14.45;;;7.22;;
25609;SDS011;13479;49.044;8.716;2023-11-21T10:27:32;11.82;;;8.18;;
25609;SDS011;13479;49.044;8.716;2023-11-21T10:29:58;14.13;;;8.90;;
25609;SDS011;13479;49.044;8.716;2023-11-21T10:32:28;12.30;;;7.53;;
25609;SDS011;13479;49.044;8.716;2023-11-21T10:34:57;11.45;;;7.78;;
25609;SDS011;13479;49.044;8.716;2023-11-21T10:37:23;10.80;;;7.50;;
25609;SDS011;13479;49.044;8.716;2023-11-21T10:39:48;11.43;;;8.75;;
25609;SDS011;13479;49.044;8.716;2023-11-21T10:42:14;15.00;;;10.20;;
25609;SDS011;13479;49.044;8.716;2023-11-21T10:44:41;14.20;;;9.32;;
25609;SDS011;13479;49.044;8.716;2023-11-21T10:47:08;15.15;;;9.75;;
25609;SDS011;13479;49.044;8.716;2023-11-21T10:49:36;12.45;;;8.65;;
25609;SDS011;13479;49.044;8.716;2023-11-21T10:52:02;14.77;;;8.88;;
25609;SDS011;13479;49.044;8.716;2023-11-21T10:54:28;14.05;;;9.27;;
25609;SDS011;13479;49.044;8.716;2023-11-21T10:56:58;14.15;;;9.27;;
25609;SDS011;13479;49.044;8.716;2023-11-21T10:59:28;15.18;;;8.80;;
25609;SDS011;13479;49.044;8.716;2023-11-21T11:01:56;14.75;;;9.45;;
25609;SDS011;13479;49.044;8.716;2023-11-21T11:04:23;13.48;;;9.18;;
25609;SDS011;13479;49.044;8.716;2023-11-21T11:06:55;11.27;;;7.60;;
25609;SDS011;13479;49.044;8.716;2023-11-21T11:09:22;14.07;;;8.38;;
25609;SDS011;13479;49.044;8.716;2023-11-21T11:11:47;14.95;;;9.88;;
25609;SDS011;13479;49.044;8.716;2023-11-21T11:14:14;12.93;;;8.68;;
25609;SDS011;13479;49.044;8.716;2023-11-21T11:16:40;13.63;;;9.32;;
25609;SDS011;13479;49.044;8.716;2023-11-21T11:19:07;11.80;;;7.97;;
25609;SDS011;13479;49.044;8.716;2023-11-21T11:26:56;11.88;;;7.82;;
25609;SDS011;13479;49.044;8.716;2023-11-21T11:29:27;16.00;;;8.82;;
25609;SDS011;13479;49.044;8.716;2023-11-21T11:34:40;11.05;;;7.20;;
25609;SDS011;13479;49.044;8.716;2023-11-21T11:37:11;10.85;;;7.20;;
25609;SDS011;13479;49.044;8.716;2023-11-21T11:39:39;12.93;;;6.43;;
25609;SDS011;13479;49.044;8.716;2023-11-21T11:42:14;11.15;;;8.25;;
25609;SDS011;13479;49.044;8.716;2023-11-21T11:47:16;10.40;;;6.30;;
25609;SDS011;13479;49.044;8.716;2023-11-21T11:55:11;6.78;;;4.38;;
25609;SDS011;13479;49.044;8.716;2023-11-21T11:57:45;9.88;;;5.22;;
25609;SDS011;13479;49.044;8.716;2023-11-21T12:00:22;9.80;;;5.00;;
25609;SDS011;13479;49.044;8.716;2023-11-21T12:03:02;7.20;;;5.18;;
25609;SDS011;13479;49.044;8.716;2023-11-21T12:05:29;5.65;;;4.20;;
25609;SDS011;13479;49.044;8.716;2023-11-21T12:07:59;2.55;;;1.75;;
25609;SDS011;13479;49.044;8.716;2023-11-21T12:10:27;1.67;;;1.30;;
25609;SDS011;13479;49.044;8.716;2023-11-21T12:12:57;1.85;;;1.10;;
25609;SDS011;13479;49.044;8.716;2023-11-21T12:15:23;3.15;;;0.80;;
25609;SDS011;13479;49.044;8.716;2023-11-21T12:17:50;1.02;;;0.63;;
25609;SDS011;13479;49.044;8.716;2023-11-21T12:20:20;1.00;;;0.60;;
25609;SDS011;13479;49.044;8.716;2023-11-21T12:22:47;0.93;;;0.60;;
25609;SDS011;13479;49.044;8.716;2023-11-21T12:25:16;1.00;;;0.50;;
25609;SDS011;13479;49.044;8.716;2023-11-21T12:27:46;2.80;;;0.57;;
25609;SDS011;13479;49.044;8.716;2023-11-21T12:30:14;0.95;;;0.52;;
25609;SDS011;13479;49.044;8.716;2023-11-21T12:32:42;0.77;;;0.40;;
25609;SDS011;13479;49.044;8.716;2023-11-21T12:35:09;2.67;;;0.57;;
25609;SDS011;13479;49.044;8.716;2023-11-21T12:37:36;1.13;;;0.75;;
25609;SDS011;13479;49.044;8.716;2023-11-21T12:40:04;1.33;;;0.60;;
25609;SDS011;13479;49.044;8.716;2023-11-21T12:42:31;0.80;;;0.50;;
25609;SDS011;13479;49.044;8.716;2023-11-21T12:45:07;0.95;;;0.50;;
25609;SDS011;13479;49.044;8.716;2023-11-21T12:47:37;0.80;;;0.52;;
25609;SDS011;13479;49.044;8.716;2023-11-21T12:50:02;0.32;;;0.30;;
25609;SDS011;13479;49.044;8.716;2023-11-21T12:52:28;0.88;;;0.45;;
25609;SDS011;13479;49.044;8.716;2023-11-21T12:54:53;0.82;;;0.43;;
25609;SDS011;13479;49.044;8.716;2023-11-21T12:57:19;1.60;;;0.70;;
25609;SDS011;13479;49.044;8.716;2023-11-21T12:59:45;1.05;;;0.77;;
25609;SDS011;13479;49.044;8.716;2023-11-21T13:02:12;0.40;;;0.40;;
25609;SDS011;13479;49.044;8.716;2023-11-21T13:04:39;0.50;;;0.40;;
25609;SDS011;13479;49.044;8.716;2023-11-21T13:07:05;1.92;;;0.68;;
25609;SDS011;13479;49.044;8.716;2023-11-21T13:09:39;1.98;;;0.80;;
25609;SDS011;13479;49.044;8.716;2023-11-21T13:12:06;0.88;;;0.65;;
25609;SDS011;13479;49.044;8.716;2023-11-21T13:14:33;2.60;;;0.80;;
25609;SDS011;13479;49.044;8.716;2023-11-21T13:16:59;1.45;;;0.70;;
25609;SDS011;13479;49.044;8.716;2023-11-21T13:19:24;0.73;;;0.47;;
25609;SDS011;13479;49.044;8.716;2023-11-21T13:21:49;1.40;;;0.98;;
25609;SDS011;13479;49.044;8.716;2023-11-21T13:24:15;1.25;;;0.60;;
25609;SDS011;13479;49.044;8.716;2023-11-21T13:26:41;2.80;;;0.90;;
25609;SDS011;13479;49.044;8.716;2023-11-21T13:29:07;1.10;;;0.80;;
25609;SDS011;13479;49.044;8.716;2023-11-21T13:31:33;2.28;;;1.00;;
25609;SDS011;13479;49.044;8.716;2023-11-21T13:34:01;2.78;;;1.23;;
25609;SDS011;13479;49.044;8.716;2023-11-21T13:36:30;1.80;;;1.00;;
25609;SDS011;13479;49.044;8.716;2023-11-21T13:38:58;1.65;;;1.10;;
25609;SDS011;13479;49.044;8.716;2023-11-21T13:41:24;1.38;;;1.00;;
25609;SDS011;13479;49.044;8.716;2023-11-21T13:43:55;1.92;;;1.23;;
25609;SDS011;13479;49.044;8.716;2023-11-21T13:46:31;1.55;;;1.15;;
25609;SDS011;13479;49.044;8.716;2023-11-21T13:49:02;1.85;;;1.10;;
25609;SDS011;13479;49.044;8.716;2023-11-21T13:51:27;2.95;;;1.60;;
25609;SDS011;13479;49.044;8.716;2023-11-21T13:54:02;3.58;;;1.90;;
25609;SDS011;13479;49.044;8.716;2023-11-21T13:56:30;2.50;;;1.77;;
25609;SDS011;13479;49.044;8.716;2023-11-21T13:58:56;4.03;;;2.33;;
25609;SDS011;13479;49.044;8.716;2023-11-21T14:01:24;4.10;;;2.30;;
25609;SDS011;13479;49.044;8.716;2023-11-21T14:04:17;3.78;;;2.40;;
25609;SDS011;13479;49.044;8.716;2023-11-21T14:06:43;2.17;;;1.60;;
25609;SDS011;13479;49.044;8.716;2023-11-21T14:09:15;3.08;;;2.20;;
25609;SDS011;13479;49.044;8.716;2023-11-21T14:11:57;3.17;;;2.13;;
25609;SDS011;13479;49.044;8.716;2023-11-21T14:14:26;3.15;;;2.13;;
25609;SDS011;13479;49.044;8.716;2023-11-21T14:16:53;2.40;;;1.80;;
25609;SDS011;13479;49.044;8.716;2023-11-21T14:19:20;3.33;;;1.83;;
25609;SDS011;13479;49.044;8.716;2023-11-21T14:21:46;2.75;;;1.83;;
25609;SDS011;13479;49.044;8.716;2023-11-21T14:24:13;2.90;;;1.63;;
25609;SDS011;13479;49.044;8.716;2023-11-21T14:26:41;3.92;;;2.10;;
25609;SDS011;13479;49.044;8.716;2023-11-21T14:29:07;3.90;;;2.45;;
25609;SDS011;13479;49.044;8.716;2023-11-21T14:31:33;2.55;;;2.00;;
25609;SDS011;13479;49.044;8.716;2023-11-21T14:33:59;2.10;;;1.75;;
25609;SDS011;13479;49.044;8.716;2023-11-21T14:36:26;4.65;;;2.10;;
25609;SDS011;13479;49.044;8.716;2023-11-21T14:38:52;3.47;;;2.00;;
25609;SDS011;13479;49.044;8.716;2023-11-21T14:41:18;3.75;;;1.60;;
25609;SDS011;13479;49.044;8.716;2023-11-21T14:43:44;3.65;;;1.70;;
25609;SDS011;13479;49.044;8.716;2023-11-21T14:46:10;2.33;;;1.70;;
25609;SDS011;13479;49.044;8.716;2023-11-21T14:48:39;3.20;;;2.00;;
25609;SDS011;13479;49.044;8.716;2023-11-21T14:51:10;2.40;;;1.80;;
25609;SDS011;13479;49.044;8.716;2023-11-21T14:53:53;2.78;;;1.90;;
25609;SDS011;13479;49.044;8.716;2023-11-21T14:56:23;2.58;;;1.45;;
25609;SDS011;13479;49.044;8.716;2023-11-21T14:58:59;5.30;;;1.65;;
25609;SDS011;13479;49.044;8.716;2023-11-21T15:01:37;2.22;;;1.50;;
25609;SDS011;13479;49.044;8.716;2023-11-21T15:04:20;4.22;;;1.80;;
25609;SDS011;13479;49.044;8.716;2023-11-21T15:06:59;3.00;;;1.70;;
25609;SDS011;13479;49.044;8.716;2023-11-21T15:09:24;2.33;;;1.73;;
25609;SDS011;13479;49.044;8.716;2023-11-21T15:11:59;2.70;;;2.15;;
25609;SDS011;13479;49.044;8.716;2023-11-21T15:14:41;4.50;;;1.98;;
25609;SDS011;13479;49.044;8.716;2023-11-21T15:17:13;3.92;;;2.67;;
25609;SDS011;13479;49.044;8.716;2023-11-21T15:19:54;7.22;;;3.10;;
25609;SDS011;13479;49.044;8.716;2023-11-21T15:22:20;4.53;;;3.13;;
25609;SDS011;13479;49.044;8.716;2023-11-21T15:24:45;3.97;;;3.10;;
25609;SDS011;13479;49.044;8.716;2023-11-21T15:27:13;4.18;;;3.15;;
25609;SDS011;13479;49.044;8.716;2023-11-21T15:29:39;5.53;;;3.47;;
25609;SDS011;13479;49.044;8.716;2023-11-21T15:32:08;7.22;;;3.38;;
25609;SDS011;13479;49.044;8.716;2023-11-21T15:34:34;5.75;;;3.72;;
25609;SDS011;13479;49.044;8.716;2023-11-21T15:37:00;5.28;;;3.67;;
25609;SDS011;13479;49.044;8.716;2023-11-21T15:39:26;7.13;;;4.47;;
25609;SDS011;13479;49.044;8.716;2023-11-21T15:41:55;7.70;;;4.30;;
25609;SDS011;13479;49.044;8.716;2023-11-21T15:44:23;6.97;;;4.43;;
25609;SDS011;13479;49.044;8.716;2023-11-21T15:46:50;8.27;;;5.30;;
25609;SDS011;13479;49.044;8.716;2023-11-21T15:49:16;6.22;;;3.80;;
25609;SDS011;13479;49.044;8.716;2023-11-21T15:51:43;10.90;;;4.38;;
25609;SDS011;13479;49.044;8.716;2023-11-21T15:54:17;8.40;;;4.30;;
25609;SDS011;13479;49.044;8.716;2023-11-21T15:59:11;6.38;;;3.63;;
25609;SDS011;13479;49.044;8.716;2023-11-21T16:01:37;9.45;;;3.58;;
25609;SDS011;13479;49.044;8.716;2023-11-21T16:04:07;5.80;;;3.20;;
25609;SDS011;13479;49.044;8.716;2023-11-21T16:06:32;7.30;;;3.70;;
25609;SDS011;13479;49.044;8.716;2023-11-21T16:09:04;7.82;;;3.42;;
25609;SDS011;13479;49.044;8.716;2023-11-21T16:11:31;8.73;;;3.40;;
25609;SDS011;13479;49.044;8.716;2023-11-21T16:13:58;8.38;;;3.90;;
25609;SDS011;13479;49.044;8.716;2023-11-21T16:16:23;7.47;;;3.45;;
25609;SDS011;13479;49.044;8.716;2023-11-21T16:18:49;7.35;;;3.30;;
25609;SDS011;13479;49.044;8.716;2023-11-21T16:21:15;8.93;;;3.55;;
25609;SDS011;13479;49.044;8.716;2023-11-21T16:23:40;7.45;;;3.55;;
25609;SDS011;13479;49.044;8.716;2023-11-21T16:26:06;5.65;;;3.72;;
25609;SDS011;13479;49.044;8.716;2023-11-21T16:28:31;6.28;;;3.67;;
25609;SDS011;13479;49.044;8.716;2023-11-21T16:30:57;6.00;;;3.40;;
25609;SDS011;13479;49.044;8.716;2023-11-21T16:33:22;7.00;;;3.50;;
25609;SDS011;13479;49.044;8.716;2023-11-21T16:35:48;9.27;;;3.70;;
25609;SDS011;13479;49.044;8.716;2023-11-21T16:38:13;7.35;;;3.70;;
25609;SDS011;13479;49.044;8.716;2023-11-21T16:40:39;6.90;;;3.70;;
25609;SDS011;13479;49.044;8.716;2023-11-21T16:43:05;7.13;;;3.80;;
25609;SDS011;13479;49.044;8.716;2023-11-21T16:45:30;9.27;;;4.10;;
25609;SDS011;13479;49.044;8.716;2023-11-21T16:47:56;7.28;;;3.70;;
25609;SDS011;13479;49.044;8.716;2023-11-21T16:50:21;5.88;;;3.63;;
25609;SDS011;13479;49.044;8.716;2023-11-21T16:52:46;9.98;;;3.55;;
25609;SDS011;13479;49.044;8.716;2023-11-21T16:55:12;9.25;;;3.55;;
25609;SDS011;13479;49.044;8.716;2023-11-21T16:57:38;7.18;;;3.63;;
25609;SDS011;13479;49.044;8.716;2023-11-21T17:00:04;9.48;;;4.05;;
25609;SDS011;13479;49.044;8.716;2023-11-21T17:02:32;9.65;;;3.22;;
25609;SDS011;13479;49.044;8.716;2023-11-21T17:04:58;6.30;;;3.22;;
25609;SDS011;13479;49.044;8.716;2023-11-21T17:07:23;9.02;;;3.38;;
25609;SDS011;13479;49.044;8.716;2023-11-21T17:09:49;6.07;;;3.10;;
25609;SDS011;13479;49.044;8.716;2023-11-21T17:12:14;6.85;;;3.15;;
25609;SDS011;13479;49.044;8.716;2023-11-21T17:14:40;7.00;;;3.15;;
25609;SDS011;13479;49.044;8.716;2023-11-21T17:17:08;6.25;;;3.40;;
25609;SDS011;13479;49.044;8.716;2023-11-21T17:19:35;11.07;;;3.75;;
25609;SDS011;13479;49.044;8.716;2023-11-21T17:22:01;8.48;;;3.50;;
25609;SDS011;13479;49.044;8.716;2023-11-21T17:24:26;6.80;;;3.25;;
25609;SDS011;13479;49.044;8.716;2023-11-21T17:26:52;8.02;;;3.20;;
25609;SDS011;13479;49.044;8.716;2023-11-21T17:29:17;6.72;;;2.80;;
25609;SDS011;13479;49.044;8.716;2023-11-21T17:31:43;9.15;;;3.72;;
25609;SDS011;13479;49.044;8.716;2023-11-21T17:34:09;7.20;;;3.47;;
25609;SDS011;13479;49.044;8.716;2023-11-21T17:36:34;10.30;;;3.13;;
25609;SDS011;13479;49.044;8.716;2023-11-21T17:39:00;7.45;;;3.50;;
25609;SDS011;13479;49.044;8.716;2023-11-21T17:41:25;9.05;;;3.80;;
25609;SDS011;13479;49.044;8.716;2023-11-21T17:43:50;8.10;;;3.92;;
25609;SDS011;13479;49.044;8.716;2023-11-21T17:46:18;13.02;;;4.72;;
25609;SDS011;13479;49.044;8.716;2023-11-21T17:48:46;8.25;;;4.55;;
25609;SDS011;13479;49.044;8.716;2023-11-21T17:51:12;9.70;;;4.22;;
25609;SDS011;13479;49.044;8.716;2023-11-21T17:53:38;10.88;;;4.65;;
25609;SDS011;13479;49.044;8.716;2023-11-21T17:56:05;8.93;;;4.03;;
25609;SDS011;13479;49.044;8.716;2023-11-21T17:58:30;11.35;;;4.72;;
25609;SDS011;13479;49.044;8.716;2023-11-21T18:00:56;16.67;;;5.35;;
25609;SDS011;13479;49.044;8.716;2023-11-21T18:03:21;10.20;;;4.65;;
25609;SDS011;13479;49.044;8.716;2023-11-21T18:05:46;11.85;;;4.22;;
25609;SDS011;13479;49.044;8.716;2023-11-21T18:08:12;12.35;;;5.18;;
25609;SDS011;13479;49.044;8.716;2023-11-21T18:10:38;13.90;;;4.80;;
25609;SDS011;13479;49.044;8.716;2023-11-21T18:13:04;9.65;;;4.50;;
25609;SDS011;13479;49.044;8.716;2023-11-21T18:15:29;12.45;;;4.32;;
25609;SDS011;13479;49.044;8.716;2023-11-21T18:17:55;9.48;;;4.70;;
25609;SDS011;13479;49.044;8.716;2023-11-21T18:20:20;12.07;;;4.88;;
25609;SDS011;13479;49.044;8.716;2023-11-21T18:22:45;11.68;;;5.30;;
25609;SDS011;13479;49.044;8.716;2023-11-21T18:25:11;9.35;;;4.65;;
25609;SDS011;13479;49.044;8.716;2023-11-21T18:27:38;13.13;;;4.80;;
25609;SDS011;13479;49.044;8.716;2023-11-21T18:30:03;10.02;;;5.35;;
25609;SDS011;13479;49.044;8.716;2023-11-21T18:32:30;14.45;;;4.55;;
25609;SDS011;13479;49.044;8.716;2023-11-21T18:34:56;11.90;;;4.78;;
25609;SDS011;13479;49.044;8.716;2023-11-21T18:37:21;9.75;;;4.60;;
25609;SDS011;13479;49.044;8.716;2023-11-21T18:39:50;13.80;;;5.47;;
25609;SDS011;13479;49.044;8.716;2023-11-21T18:42:15;11.43;;;4.80;;
25609;SDS011;13479;49.044;8.716;2023-11-21T18:44:41;14.55;;;4.88;;
25609;SDS011;13479;49.044;8.716;2023-11-21T18:47:07;15.25;;;5.68;;
25609;SDS011;13479;49.044;8.716;2023-11-21T18:49:35;9.45;;;5.03;;
25609;SDS011;13479;49.044;8.716;2023-11-21T18:52:00;12.02;;;5.40;;
25609;SDS011;13479;49.044;8.716;2023-11-21T18:54:28;10.63;;;5.10;;
25609;SDS011;13479;49.044;8.716;2023-11-21T18:56:53;17.50;;;5.57;;
25609;SDS011;13479;49.044;8.716;2023-11-21T18:59:18;12.30;;;5.97;;
25609;SDS011;13479;49.044;8.716;2023-11-21T19:01:45;16.70;;;6.25;;
25609;SDS011;13479;49.044;8.716;2023-11-21T19:04:11;16.92;;;6.75;;
25609;SDS011;13479;49.044;8.716;2023-11-21T19:06:36;14.27;;;7.15;;
25609;SDS011;13479;49.044;8.716;2023-11-21T19:09:02;17.33;;;6.43;;
25609;SDS011;13479;49.044;8.716;2023-11-21T19:11:28;13.38;;;6.13;;
25609;SDS011;13479;49.044;8.716;2023-11-21T19:13:54;15.32;;;6.57;;
25609;SDS011;13479;49.044;8.716;2023-11-21T19:16:19;14.75;;;6.72;;
25609;SDS011;13479;49.044;8.716;2023-11-21T19:18:46;13.93;;;6.10;;
25609;SDS011;13479;49.044;8.716;2023-11-21T19:21:17;14.68;;;6.68;;
25609;SDS011;13479;49.044;8.716;2023-11-21T19:23:44;17.35;;;7.53;;
25609;SDS011;13479;49.044;8.716;2023-11-21T19:26:10;15.82;;;6.72;;
25609;SDS011;13479;49.044;8.716;2023-11-21T19:28:35;15.27;;;7.25;;
25609;SDS011;13479;49.044;8.716;2023-11-21T19:31:00;17.98;;;7.10;;
25609;SDS011;13479;49.044;8.716;2023-11-21T19:33:28;16.00;;;7.30;;
25609;SDS011;13479;49.044;8.716;2023-11-21T19:35:53;18.10;;;7.40;;
25609;SDS011;13479;49.044;8.716;2023-11-21T19:38:18;15.32;;;6.93;;
25609;SDS011;13479;49.044;8.716;2023-11-21T19:40:45;14.45;;;7.32;;
25609;SDS011;13479;49.044;8.716;2023-11-21T19:43:10;15.70;;;7.40;;
25609;SDS011;13479;49.044;8.716;2023-11-21T19:45:35;18.60;;;6.95;;
25609;SDS011;13479;49.044;8.716;2023-11-21T19:48:01;14.75;;;6.55;;
25609;SDS011;13479;49.044;8.716;2023-11-21T19:50:27;16.25;;;7.45;;
25609;SDS011;13479;49.044;8.716;2023-11-21T19:52:53;17.13;;;8.27;;
25609;SDS011;13479;49.044;8.716;2023-11-21T19:55:18;12.98;;;6.85;;
25609;SDS011;13479;49.044;8.716;2023-11-21T19:57:43;16.08;;;7.25;;
25609;SDS011;13479;49.044;8.716;2023-11-21T20:00:09;18.13;;;7.88;;
25609;SDS011;13479;49.044;8.716;2023-11-21T20:02:36;13.13;;;6.28;;
25609;SDS011;13479;49.044;8.716;2023-11-21T20:05:02;11.10;;;5.75;;
25609;SDS011;13479;49.044;8.716;2023-11-21T20:07:27;10.40;;;5.45;;